Weather History for KPNA - June, 2013

Change the Weather History Date:

Thursday, June 27, 2013

  Actual Average (KBPI) Record (KBPI)
Temperature  
Mean Temperature 64 °F 58 °F  
Max Temperature 86 °F 76 °F 90 °F (2013)
Min Temperature 41 °F 40 °F 27 °F (1976)
Degree Days  
Heating Degree Days 2 7  
Month to date heating degree days 285  
Since 1 June heating degree days 285  
Since 1 July heating degree days 10411  
Cooling Degree Days 0 0  
Month to date cooling degree days 0  
Year to date cooling degree days 0  
Since 1 June cooling degree days 0  
Growing Degree Days 14 (Base 50)    
Moisture  
Dew Point 38 °F    
Average Humidity 46    
Maximum Humidity 93    
Minimum Humidity 14    
Precipitation  
Precipitation 0.00 in 0.02 in 0.74 in (2004)
Month to date precipitation 0.73  
Year to date precipitation 3.20  
Sea Level Pressure  
Sea Level Pressure 30.42 in    
Wind  
Wind Speed 7 mph (NW)    
Max Wind Speed 22 mph    
Max Gust Speed 30 mph    
Visibility 10 miles    
Events      
T = Trace of Precipitation, MM = Missing Value Source: NWS Daily Summary

Daily Weather History Graph

Daily Weather History Graph

Search for Another Location

Airport or City:

Trip Planner

Search our weather history database for the weather conditions in past years. The results will help you decide how hot, cold, wet, or windy it might be!

Date:

Astronomy

Jun. 27, 2013 Rise Set
Actual Time 5:42 AM MDT 9:01 PM MDT
Civil Twilight 5:07 AM MDT 9:36 PM MDT
Nautical Twilight 4:22 AM MDT 10:22 PM MDT
Astronomical Twilight 3:26 AM MDT 11:18 PM MDT
Moon 11:52 PM MDT (6/27) 10:55 AM MDT (6/27)
Length of Visible Light 16h 29m
Length of Day
15h 18m
Waning Gibbous, 76% of the Moon is Illuminated
Jun 27
Waning Gibbous
Jun 29
Last Quarter
Jul 8
New
Jul 15
First Quarter
Jul 22
Full

Hourly Weather History & Observations

Time (MDT) Temp. Windchill Dew Point Humidity Pressure Visibility Wind Dir Wind Speed Gust Speed Precip Events Conditions
12:15 AM 55.4 °F - 42.8 °F 63% 30.37 in 10.0 mi NNW 4.6 mph - N/A   Clear
12:35 AM 50.0 °F - 41.0 °F 71% 30.37 in 10.0 mi Calm Calm - N/A   Clear
12:55 AM 50.0 °F - 41.0 °F 71% 30.37 in 10.0 mi West 3.5 mph - N/A   Clear
1:15 AM 50.0 °F - 42.8 °F 76% 30.37 in 10.0 mi West 6.9 mph - N/A   Clear
1:35 AM 50.0 °F - 42.8 °F 76% 30.37 in 10.0 mi NW 5.8 mph - N/A   Clear
1:55 AM 44.6 °F 43.1 °F 41.0 °F 87% 30.38 in 10.0 mi NW 3.5 mph - N/A   Clear
2:15 AM 46.4 °F 45.2 °F 41.0 °F 81% 30.38 in 10.0 mi NNW 3.5 mph - N/A   Clear
2:35 AM 44.6 °F 43.1 °F 41.0 °F 87% 30.39 in 10.0 mi West 3.5 mph - N/A   Clear
2:55 AM 44.6 °F 41.4 °F 41.0 °F 87% 30.39 in 10.0 mi WNW 5.8 mph - N/A   Clear
3:15 AM 44.6 °F 41.4 °F 41.0 °F 87% 30.38 in 10.0 mi NW 5.8 mph - N/A   Clear
3:35 AM 42.8 °F 40.1 °F 39.2 °F 87% 30.39 in 10.0 mi WNW 4.6 mph - N/A   Clear
3:55 AM 42.8 °F 38.6 °F 41.0 °F 93% 30.39 in 10.0 mi WNW 6.9 mph - N/A   Clear
4:15 AM 42.8 °F 39.3 °F 41.0 °F 93% 30.39 in 10.0 mi WNW 5.8 mph - N/A   Clear
4:35 AM 42.8 °F 39.3 °F 41.0 °F 93% 30.40 in 10.0 mi WNW 5.8 mph - N/A   Clear
4:55 AM 42.8 °F 40.1 °F 41.0 °F 93% 30.40 in 10.0 mi NW 4.6 mph - N/A   Clear
5:15 AM 42.8 °F 38.6 °F 41.0 °F 93% 30.40 in 10.0 mi NW 6.9 mph - N/A   Clear
5:35 AM 42.8 °F 39.3 °F 41.0 °F 93% 30.41 in 10.0 mi WNW 5.8 mph - N/A   Clear
5:55 AM 41.0 °F 36.4 °F 39.2 °F 93% 30.41 in 10.0 mi West 6.9 mph - N/A   Clear
6:15 AM 42.8 °F 39.3 °F 41.0 °F 93% 30.42 in 10.0 mi WNW 5.8 mph - N/A   Clear
6:55 AM 48.2 °F - 42.8 °F 82% 30.43 in 10.0 mi WNW 6.9 mph - N/A   Clear
7:15 AM 50.0 °F - 42.8 °F 76% 30.43 in 10.0 mi WNW 6.9 mph - N/A   Clear
7:35 AM 51.8 °F - 42.8 °F 71% 30.44 in 10.0 mi West 6.9 mph - N/A   Clear
8:55 AM 64.4 °F - 44.6 °F 49% 30.45 in 10.0 mi West 3.5 mph - N/A   Clear
9:35 AM 69.8 °F - 42.8 °F 38% 30.45 in 10.0 mi Calm Calm - N/A   Clear
10:15 AM 73.4 °F - 41.0 °F 31% 30.45 in 10.0 mi NW 3.5 mph - N/A   Clear
10:35 AM 73.4 °F - 41.0 °F 31% 30.45 in 10.0 mi NNW 5.8 mph - N/A   Clear
10:55 AM 73.4 °F - 39.2 °F 29% 30.45 in 10.0 mi NNW 4.6 mph - N/A   Clear
11:15 AM 77.0 °F - 39.2 °F 26% 30.45 in 10.0 mi North 4.6 mph - N/A   Clear
11:35 AM 77.0 °F - 35.6 °F 22% 30.45 in 10.0 mi Calm Calm - N/A   Clear
11:55 AM 78.8 °F - 33.8 °F 20% 30.45 in 10.0 mi North 5.8 mph - N/A   Clear
12:15 PM 78.8 °F - 35.6 °F 21% 30.45 in 10.0 mi NNW 6.9 mph - N/A   Clear
12:35 PM 78.8 °F - 35.6 °F 21% 30.45 in 10.0 mi NNW 11.5 mph 16.1 mph N/A   Clear
12:55 PM 78.8 °F - 35.6 °F 21% 30.45 in 10.0 mi Calm Calm - N/A   Clear
1:15 PM 80.6 °F - 35.6 °F 20% 30.44 in 10.0 mi North 5.8 mph - N/A   Clear
1:35 PM 80.6 °F - 35.6 °F 20% 30.44 in 10.0 mi Calm Calm - N/A   Scattered Clouds
1:55 PM 80.6 °F - 35.6 °F 20% 30.43 in 10.0 mi NW 9.2 mph 17.3 mph N/A   Scattered Clouds
2:15 PM 86.0 °F - 32.0 °F 14% 30.43 in 10.0 mi WNW 8.1 mph 20.7 mph N/A   Scattered Clouds
2:35 PM 86.0 °F - 32.0 °F 14% 30.42 in 10.0 mi NW 15.0 mph 24.2 mph N/A   Scattered Clouds
2:55 PM 86.0 °F - 32.0 °F 14% 30.42 in 10.0 mi WNW 18.4 mph 27.6 mph N/A   Scattered Clouds
3:15 PM 86.0 °F - 32.0 °F 14% 30.42 in 10.0 mi WNW 19.6 mph 28.8 mph N/A   Clear
3:35 PM 86.0 °F - 32.0 °F 14% 30.42 in 10.0 mi NW 21.9 mph - N/A   Clear
3:55 PM 86.0 °F - 32.0 °F 14% 30.42 in 10.0 mi WNW 21.9 mph 29.9 mph N/A   Clear
4:15 PM 86.0 °F - 32.0 °F 14% 30.42 in 10.0 mi West 11.5 mph 24.2 mph N/A   Clear
4:35 PM 84.2 °F - 32.0 °F 15% 30.41 in 10.0 mi WNW 16.1 mph 24.2 mph N/A   Clear
4:55 PM 86.0 °F - 32.0 °F 14% 30.42 in 10.0 mi WNW 17.3 mph 21.9 mph N/A   Clear
5:15 PM 86.0 °F - 32.0 °F 14% 30.42 in 10.0 mi WNW 18.4 mph 26.5 mph N/A   Clear
5:35 PM 84.2 °F - 32.0 °F 15% 30.41 in 10.0 mi WNW 18.4 mph 25.3 mph N/A   Clear
5:55 PM 84.2 °F - 32.0 °F 15% 30.41 in 10.0 mi NW 15.0 mph 25.3 mph N/A   Clear
6:15 PM 84.2 °F - 32.0 °F 15% 30.41 in 10.0 mi WNW 13.8 mph 26.5 mph N/A   Clear
6:35 PM 84.2 °F - 33.8 °F 16% 30.41 in 10.0 mi NW 16.1 mph 21.9 mph N/A   Clear
6:55 PM 82.4 °F - 33.8 °F 17% 30.41 in 10.0 mi NNW 16.1 mph - N/A   Clear
7:15 PM 82.4 °F - 35.6 °F 19% 30.42 in 10.0 mi NW 15.0 mph 19.6 mph N/A   Clear
7:35 PM 80.6 °F - 35.6 °F 20% 30.42 in 10.0 mi NW 13.8 mph - N/A   Clear
7:55 PM 78.8 °F - 35.6 °F 21% 30.42 in 10.0 mi NW 11.5 mph - N/A   Clear
8:15 PM 78.8 °F - 37.4 °F 23% 30.42 in 10.0 mi NW 10.4 mph - N/A   Clear
8:35 PM 77.0 °F - 37.4 °F 24% 30.43 in 10.0 mi NW 10.4 mph - N/A   Clear
8:55 PM 71.6 °F - 41.0 °F 33% 30.43 in 10.0 mi NW 9.2 mph - N/A   Clear
9:15 PM 69.8 °F - 41.0 °F 35% 30.43 in 10.0 mi NW 4.6 mph - N/A   Clear
9:35 PM 64.4 °F - 42.8 °F 45% 30.44 in 10.0 mi West 5.8 mph - N/A   Clear
9:55 PM 64.4 °F - 42.8 °F 45% 30.45 in 10.0 mi West 4.6 mph - N/A   Clear
10:15 PM 62.6 °F - 41.0 °F 45% 30.46 in 10.0 mi NW 6.9 mph - N/A   Clear
10:35 PM 62.6 °F - 41.0 °F 45% 30.47 in 10.0 mi NW 5.8 mph - N/A   Clear
10:55 PM 60.8 °F - 42.8 °F 52% 30.47 in 10.0 mi WNW 6.9 mph - N/A   Clear
11:15 PM 59.0 °F - 42.8 °F 55% 30.46 in 10.0 mi WNW 6.9 mph - N/A   Clear
11:35 PM 55.4 °F - 42.8 °F 63% 30.46 in 10.0 mi NW 5.8 mph - N/A   Clear
11:55 PM 55.4 °F - 42.8 °F 63% 30.46 in 10.0 mi WNW 6.9 mph - N/A   Clear